Time;durP1;ratioP1;P1;durP2;ratioP2;P2;SDS_P1;SDS_P2;PMS_P1;PMS_P2;Temp;Humidity;BMP_temperature;BMP_pressure;BME280_temperature;BME280_humidity;BME280_pressure;Samples;Min_cycle;Max_cycle;Signal;HPM_P1;HPM_P2
2022/05/01 00:01:08;;;;;;;17.85;8.95;;;10.60;99.90;;;;;;5048759;28;20503;-60
2022/05/01 00:03:35;;;;;;;17.27;8.45;;;10.50;99.90;;;;;;5052077;28;20067;-62
2022/05/01 00:06:07;;;;;;;18.38;8.85;;;10.50;99.90;;;;;;5079410;22;20041;-59
2022/05/01 00:08:34;;;;;;;16.77;8.65;;;10.50;99.90;;;;;;5053894;28;20029;-61
2022/05/01 00:11:01;;;;;;;18.27;9.00;;;10.40;99.90;;;;;;5055654;28;20470;-60
2022/05/01 00:13:26;;;;;;;17.60;8.90;;;10.30;99.90;;;;;;5055804;28;20025;-62
2022/05/01 00:15:53;;;;;;;16.60;8.70;;;10.30;99.90;;;;;;5054149;28;20028;-60
2022/05/01 00:18:19;;;;;;;17.08;8.27;;;10.30;99.90;;;;;;5055815;28;20374;-62
2022/05/01 00:20:46;;;;;;;18.35;9.50;;;10.30;99.90;;;;;;5054132;28;20028;-59
2022/05/01 00:23:12;;;;;;;19.42;8.50;;;10.20;99.90;;;;;;5055718;28;20033;-61
2022/05/01 00:25:41;;;;;;;17.50;8.43;;;10.20;99.90;;;;;;5055681;28;20366;-61
2022/05/01 00:28:11;;;;;;;16.92;8.52;;;10.10;99.90;;;;;;5055675;28;20053;-64
2022/05/01 00:30:37;;;;;;;16.42;8.43;;;10.00;99.90;;;;;;5054218;28;20567;-61
2022/05/01 00:38:31;;;;;;;17.65;9.38;;;10.00;99.90;;;;;;5055747;28;20115;-63
2022/05/01 00:40:57;;;;;;;19.15;9.07;;;9.90;99.90;;;;;;5055100;28;20493;-62
2022/05/01 00:43:23;;;;;;;18.88;9.80;;;9.80;99.90;;;;;;5055559;28;20029;-62
2022/05/01 00:45:49;;;;;;;18.60;10.07;;;9.80;99.90;;;;;;5055029;28;20032;-61
2022/05/01 00:48:16;;;;;;;16.33;8.55;;;9.70;99.90;;;;;;5055139;28;20036;-61
2022/05/01 00:50:43;;;;;;;17.45;8.35;;;9.60;99.90;;;;;;5055213;28;20021;-60
2022/05/01 00:53:09;;;;;;;18.02;8.50;;;9.60;99.90;;;;;;5055074;28;20402;-60
2022/05/01 00:55:36;;;;;;;17.13;9.75;;;9.60;99.90;;;;;;5054859;28;20028;-61
2022/05/01 00:58:04;;;;;;;20.25;8.88;;;9.50;99.90;;;;;;5053615;28;20037;-60
2022/05/01 01:00:29;;;;;;;17.03;8.20;;;9.50;99.90;;;;;;5053390;28;20056;-60
2022/05/01 01:02:55;;;;;;;19.15;8.77;;;9.50;99.90;;;;;;5053645;28;20700;-60
2022/05/01 01:05:21;;;;;;;17.88;9.88;;;9.40;99.90;;;;;;5054633;28;20052;-61
2022/05/01 01:07:47;;;;;;;18.30;8.50;;;9.40;99.90;;;;;;5054891;28;20029;-63
2022/05/01 01:10:13;;;;;;;18.27;8.50;;;9.40;99.90;;;;;;5054667;28;20439;-62
2022/05/01 01:12:55;;;;;;;17.98;8.38;;;9.30;99.90;;;;;;5054697;28;20102;-62
2022/05/01 01:15:21;;;;;;;18.90;8.10;;;9.30;99.90;;;;;;5051926;28;20021;-61
2022/05/01 01:17:52;;;;;;;102.45;65.97;;;9.20;99.90;;;;;;5054440;28;20021;-61
2022/05/01 01:20:26;;;;;;;72.65;49.35;;;9.20;99.90;;;;;;5054538;28;20032;-59
2022/05/01 01:22:53;;;;;;;37.20;22.80;;;9.30;99.90;;;;;;5053440;28;20025;-60
2022/05/01 01:25:22;;;;;;;24.03;13.73;;;9.40;99.90;;;;;;5053673;28;20032;-61
2022/05/01 01:27:51;;;;;;;;;;;9.40;99.90;;;;;;5056507;28;20095;-61
2022/05/01 01:33:02;;;;;;;18.20;8.32;;;9.30;99.90;;;;;;5056498;28;20032;-63
2022/05/01 01:35:29;;;;;;;17.52;8.80;;;9.20;99.90;;;;;;5055594;28;20020;-63
2022/05/01 01:37:55;;;;;;;17.25;8.70;;;9.10;99.90;;;;;;5054744;28;20071;-60
2022/05/01 01:40:24;;;;;;;18.40;8.90;;;9.00;99.90;;;;;;5054070;28;20070;-60
2022/05/01 01:42:52;;;;;;;17.67;8.50;;;9.00;99.90;;;;;;5054185;28;20028;-62
2022/05/01 01:45:18;;;;;;;16.40;8.10;;;9.00;99.90;;;;;;5054013;28;20039;-61
2022/05/01 01:47:44;;;;;;;17.88;8.60;;;8.90;99.90;;;;;;5052649;28;20029;-61
2022/05/01 01:50:13;;;;;;;16.35;8.23;;;8.80;99.90;;;;;;5053896;28;20365;-61
2022/05/01 01:52:39;;;;;;;17.05;8.48;;;8.80;99.90;;;;;;5052631;28;20017;-61
2022/05/01 01:55:05;;;;;;;18.38;7.97;;;8.70;99.90;;;;;;5053663;28;20025;-62
2022/05/01 01:57:31;;;;;;;16.88;7.80;;;8.70;99.90;;;;;;5053935;28;20501;-61
2022/05/01 01:59:56;;;;;;;18.63;8.52;;;8.70;99.90;;;;;;5053686;28;20040;-58
2022/05/01 02:02:22;;;;;;;20.60;9.18;;;8.80;99.90;;;;;;5052502;28;20504;-61
2022/05/01 02:04:47;;;;;;;24.45;8.70;;;8.80;99.90;;;;;;5052119;28;20028;-61
2022/05/01 02:07:13;;;;;;;19.50;8.45;;;8.90;99.90;;;;;;5052165;28;20029;-60
2022/05/01 02:09:38;;;;;;;17.38;8.18;;;8.90;99.90;;;;;;5053333;28;20548;-60
2022/05/01 02:12:08;;;;;;;17.40;8.35;;;8.90;99.90;;;;;;5053418;28;20060;-62
2022/05/01 02:14:35;;;;;;;19.30;8.50;;;8.90;99.90;;;;;;5053326;28;20044;-61
2022/05/01 02:17:02;;;;;;;19.00;8.98;;;8.90;99.90;;;;;;5053381;28;20036;-61
2022/05/01 02:19:31;;;;;;;18.00;8.37;;;8.90;99.90;;;;;;5051704;28;20029;-60
2022/05/01 02:21:57;;;;;;;17.98;9.10;;;9.00;99.90;;;;;;5053308;28;20025;-60
2022/05/01 02:24:25;;;;;;;17.42;8.32;;;9.00;99.90;;;;;;5053000;28;20040;-60
2022/05/01 02:26:52;;;;;;;17.08;8.10;;;9.00;99.90;;;;;;5052994;28;20477;-60
2022/05/01 02:29:17;;;;;;;19.73;9.80;;;9.00;99.90;;;;;;5052098;28;20040;-61
2022/05/01 02:31:44;;;;;;;19.83;8.80;;;9.10;99.90;;;;;;5051816;28;20021;-60
2022/05/01 02:34:11;;;;;;;17.88;8.38;;;9.10;99.90;;;;;;5052822;28;20765;-61
2022/05/01 02:36:38;;;;;;;17.20;8.73;;;9.10;99.90;;;;;;5052992;28;20035;-61
2022/05/01 02:39:05;;;;;;;17.27;7.85;;;9.20;99.90;;;;;;5051775;28;20455;-60
2022/05/01 02:41:31;;;;;;;18.13;8.60;;;9.20;99.90;;;;;;5053026;28;20051;-56
2022/05/01 02:43:58;;;;;;;18.55;8.82;;;9.20;99.90;;;;;;5053034;28;20033;-62
2022/05/01 02:46:25;;;;;;;16.70;8.30;;;9.30;99.90;;;;;;5053005;28;20037;-62
2022/05/01 02:48:50;;;;;;;16.83;9.13;;;9.30;99.90;;;;;;5052568;28;20054;-62
2022/05/01 02:51:16;;;;;;;19.95;8.77;;;9.30;99.90;;;;;;5051429;28;20020;-60
2022/05/01 02:53:43;;;;;;;18.83;8.68;;;9.30;99.90;;;;;;5052580;28;20025;-61
2022/05/01 02:56:09;;;;;;;18.80;9.00;;;9.20;99.90;;;;;;5051367;28;20029;-61
2022/05/01 02:58:35;;;;;;;17.20;8.82;;;9.20;99.90;;;;;;5052907;28;20029;-61
2022/05/01 03:01:01;;;;;;;17.27;8.75;;;9.10;99.90;;;;;;5052509;28;20051;-61
2022/05/01 03:03:27;;;;;;;17.67;8.43;;;9.10;99.90;;;;;;5052427;28;20108;-62
2022/05/01 03:05:54;;;;;;;17.58;8.65;;;9.00;99.90;;;;;;5052134;28;20029;-59
2022/05/01 03:08:21;;;;;;;18.60;9.13;;;9.00;99.90;;;;;;5052437;28;20526;-61
2022/05/01 03:10:47;;;;;;;18.58;9.38;;;9.00;99.90;;;;;;5052266;28;20535;-60
2022/05/01 03:13:13;;;;;;;19.20;8.85;;;8.90;99.90;;;;;;5052470;28;20028;-60
2022/05/01 03:15:40;;;;;;;19.30;9.80;;;8.90;99.90;;;;;;5052094;28;20017;-60
2022/05/01 03:23:34;;;;;;;17.55;8.70;;;8.80;99.90;;;;;;5052479;28;20044;-62
2022/05/01 03:25:59;;;;;;;18.92;9.45;;;8.90;99.90;;;;;;5052040;28;20425;-61
2022/05/01 03:28:25;;;;;;;17.00;9.10;;;9.00;99.90;;;;;;5051901;28;20049;-60
2022/05/01 03:30:53;;;;;;;18.60;9.38;;;9.00;99.90;;;;;;5052121;28;20029;-61
2022/05/01 03:33:21;;;;;;;16.98;8.70;;;9.00;99.90;;;;;;5050575;28;20115;-60
2022/05/01 03:35:48;;;;;;;17.42;9.20;;;9.10;99.90;;;;;;5051659;28;20087;-61
2022/05/01 03:38:15;;;;;;;19.50;8.68;;;9.00;99.90;;;;;;5049972;28;20046;-60
2022/05/01 03:40:41;;;;;;;18.48;8.77;;;9.10;99.90;;;;;;5051988;28;20085;-58
2022/05/01 03:43:07;;;;;;;16.48;8.48;;;9.10;99.90;;;;;;5050703;28;20056;-59
2022/05/01 03:45:33;;;;;;;17.85;8.80;;;9.10;99.90;;;;;;5051895;28;20494;-63
2022/05/01 03:47:59;;;;;;;17.50;9.10;;;9.00;99.90;;;;;;5052046;28;20086;-61
2022/05/01 03:50:24;;;;;;;18.80;8.85;;;9.10;99.90;;;;;;5052040;28;20021;-59
2022/05/01 03:52:51;;;;;;;18.85;9.95;;;9.00;99.90;;;;;;5051148;28;20029;-60
2022/05/01 03:55:16;;;;;;;20.55;9.32;;;9.00;99.90;;;;;;5052035;28;20025;-62
2022/05/01 03:57:42;;;;;;;18.95;9.82;;;8.90;99.90;;;;;;5052219;28;20051;-61
2022/05/01 04:00:18;;;;;;;19.05;9.05;;;8.80;99.90;;;;;;5050765;28;20075;-61
2022/05/01 04:02:44;;;;;;;18.23;9.10;;;8.70;99.90;;;;;;5050307;28;20025;-61
2022/05/01 04:05:12;;;;;;;16.02;8.02;;;8.70;99.90;;;;;;5050186;28;20033;-62
2022/05/01 04:07:38;;;;;;;17.77;9.20;;;8.70;99.90;;;;;;5051679;28;20397;-60
2022/05/01 04:10:05;;;;;;;18.77;9.65;;;8.70;99.90;;;;;;5051698;28;20466;-61
2022/05/01 04:12:44;;;;;;;18.75;9.48;;;8.70;99.90;;;;;;5051667;28;20021;-60
2022/05/01 04:15:14;;;;;;;17.55;9.18;;;8.70;99.90;;;;;;5050225;28;20021;-61
2022/05/01 04:17:41;;;;;;;17.83;9.40;;;8.70;99.90;;;;;;5051737;28;20027;-58
2022/05/01 04:20:13;;;;;;;19.00;9.52;;;8.80;99.90;;;;;;5050437;28;20035;-62
2022/05/01 04:22:42;;;;;;;19.35;9.55;;;8.80;99.90;;;;;;5051535;28;20021;-62
2022/05/01 04:25:19;;;;;;;18.17;9.65;;;8.80;99.90;;;;;;5051442;28;20025;-59
2022/05/01 04:27:47;;;;;;;18.17;9.25;;;9.00;99.90;;;;;;5050250;28;20120;-61
2022/05/01 04:30:14;;;;;;;18.87;9.53;;;9.00;99.90;;;;;;5051468;28;20029;-59
2022/05/01 04:32:48;;;;;;;20.23;10.13;;;9.10;99.90;;;;;;5051511;28;20024;-59
2022/05/01 04:35:19;;;;;;;18.00;9.75;;;9.10;99.90;;;;;;5051226;28;20049;-60
2022/05/01 04:37:45;;;;;;;18.77;9.52;;;9.10;99.90;;;;;;5051500;28;20021;-60
2022/05/01 04:40:11;;;;;;;19.35;9.52;;;9.20;99.90;;;;;;5051402;28;20504;-60
2022/05/01 04:42:36;;;;;;;18.15;9.57;;;9.20;99.90;;;;;;5051453;28;20029;-62
2022/05/01 04:45:02;;;;;;;19.45;9.85;;;9.20;99.90;;;;;;5051330;28;20032;-62
2022/05/01 04:47:28;;;;;;;21.52;10.32;;;9.20;99.90;;;;;;5051329;28;20029;-60
2022/05/01 04:49:53;;;;;;;18.58;9.85;;;9.30;99.90;;;;;;5053647;28;20021;-59
2022/05/01 04:52:19;;;;;;;19.52;9.77;;;9.30;99.90;;;;;;5053776;28;20017;-60
2022/05/01 04:54:45;;;;;;;20.52;10.43;;;9.30;99.90;;;;;;5054775;28;20374;-57
2022/05/01 04:57:13;;;;;;;24.80;11.23;;;9.40;99.90;;;;;;5054941;28;20031;-58
2022/05/01 04:59:38;;;;;;;20.33;10.93;;;9.40;99.90;;;;;;5053577;28;20029;-58
2022/05/01 05:02:04;;;;;;;20.67;10.90;;;9.40;99.90;;;;;;5053527;28;20544;-62
2022/05/01 05:04:30;;;;;;;19.38;10.93;;;9.50;99.90;;;;;;5054401;28;20048;-59
2022/05/01 05:06:56;;;;;;;20.55;11.60;;;9.60;99.90;;;;;;5054640;28;20072;-58
2022/05/01 05:12:07;;;;;;;20.67;11.18;;;9.60;99.90;;;;;;5054929;28;20036;-61
2022/05/01 05:14:33;;;;;;;20.77;11.68;;;9.70;99.90;;;;;;5054432;28;20029;-60
2022/05/01 05:17:00;;;;;;;18.88;10.77;;;9.70;99.90;;;;;;5054557;28;20537;-59
2022/05/01 05:19:26;;;;;;;21.90;11.70;;;9.70;99.90;;;;;;5053063;28;20029;-60
2022/05/01 05:21:51;;;;;;;20.38;11.25;;;9.70;99.90;;;;;;5054471;28;20028;-62
2022/05/01 05:24:17;;;;;;;21.20;11.15;;;9.70;99.90;;;;;;5054698;28;20426;-60
2022/05/01 05:26:43;;;;;;;20.08;11.52;;;9.70;99.90;;;;;;5054423;28;20366;-63
2022/05/01 05:29:08;;;;;;;20.25;11.85;;;9.80;99.90;;;;;;5054060;28;20469;-62
2022/05/01 05:31:35;;;;;;;21.63;12.07;;;9.80;99.90;;;;;;5054109;28;20021;-62
2022/05/01 05:34:00;;;;;;;19.80;11.23;;;9.90;99.90;;;;;;5053091;28;20044;-62
2022/05/01 05:36:26;;;;;;;20.13;11.77;;;9.90;99.90;;;;;;5054178;28;20424;-60
2022/05/01 05:38:51;;;;;;;21.77;11.57;;;10.00;99.90;;;;;;5053846;28;20040;-59
2022/05/01 05:41:17;;;;;;;25.05;11.75;;;10.10;99.90;;;;;;5052917;28;20187;-60
2022/05/01 05:43:43;;;;;;;21.58;12.07;;;10.10;99.90;;;;;;5054237;28;20028;-62
2022/05/01 05:46:08;;;;;;;22.02;12.82;;;10.10;99.90;;;;;;5052406;28;20048;-61
2022/05/01 05:48:37;;;;;;;23.30;12.85;;;10.10;99.90;;;;;;5054014;28;20040;-61
2022/05/01 05:51:05;;;;;;;19.98;11.50;;;10.20;99.90;;;;;;5052613;28;20032;-58
2022/05/01 05:53:31;;;;;;;22.08;12.55;;;10.30;99.90;;;;;;5053960;28;20033;-61
2022/05/01 05:55:57;;;;;;;24.63;12.10;;;10.30;99.90;;;;;;5052529;28;20378;-62
2022/05/01 05:58:22;;;;;;;22.52;11.85;;;10.40;99.90;;;;;;5053742;28;20511;-59
2022/05/01 06:00:48;;;;;;;20.52;11.95;;;10.50;99.90;;;;;;5052895;28;20156;-60
2022/05/01 06:03:14;;;;;;;23.90;12.70;;;10.60;99.90;;;;;;5053561;28;20025;-61
2022/05/01 06:05:39;;;;;;;22.50;12.32;;;10.60;99.90;;;;;;5054063;28;20119;-61
2022/05/01 06:08:05;;;;;;;21.85;12.05;;;10.60;99.90;;;;;;5052199;28;20542;-60
2022/05/01 06:10:31;;;;;;;25.42;12.45;;;10.70;99.90;;;;;;5053501;28;20025;-61
2022/05/01 06:12:57;;;;;;;24.33;11.45;;;10.80;99.90;;;;;;5053640;28;20044;-61
2022/05/01 06:15:22;;;;;;;21.27;12.23;;;10.80;99.90;;;;;;5053334;28;20047;-61
2022/05/01 06:17:50;;;;;;;21.42;12.85;;;11.00;99.90;;;;;;5053505;28;20098;-62
2022/05/01 06:20:15;;;;;;;23.25;13.18;;;11.10;99.90;;;;;;5052151;28;20033;-58
2022/05/01 06:22:41;;;;;;;22.10;13.73;;;11.20;99.90;;;;;;5052097;28;20404;-60
2022/05/01 06:25:07;;;;;;;23.20;12.90;;;11.30;99.90;;;;;;5053207;28;20473;-60
2022/05/01 06:27:33;;;;;;;22.48;11.82;;;11.20;99.90;;;;;;5051886;28;20447;-62
2022/05/01 06:29:58;;;;;;;21.60;12.48;;;11.30;99.90;;;;;;5053343;28;20021;-61
2022/05/01 06:32:25;;;;;;;21.10;12.43;;;11.30;99.90;;;;;;5053143;28;20096;-58
2022/05/01 06:34:52;;;;;;;19.98;11.68;;;11.30;99.90;;;;;;5053195;28;20029;-58
2022/05/01 06:37:18;;;;;;;21.40;12.55;;;11.30;99.90;;;;;;5053248;28;20021;-60
2022/05/01 06:39:43;;;;;;;23.30;14.07;;;11.40;99.90;;;;;;5051698;28;20070;-61
2022/05/01 06:42:09;;;;;;;20.50;11.15;;;11.60;99.90;;;;;;5052859;28;20390;-61
2022/05/01 06:44:35;;;;;;;20.38;12.10;;;11.80;99.90;;;;;;5052813;28;20090;-60
2022/05/01 06:47:01;;;;;;;21.88;11.63;;;11.80;99.90;;;;;;5051631;28;20571;-60
2022/05/01 06:49:27;;;;;;;20.65;12.32;;;11.90;99.90;;;;;;5052652;28;20533;-56
2022/05/01 06:51:53;;;;;;;20.17;11.52;;;11.90;99.90;;;;;;5052732;28;20120;-59
2022/05/01 06:54:18;;;;;;;19.70;11.82;;;12.10;99.90;;;;;;5051255;28;20053;-60
2022/05/01 06:56:44;;;;;;;22.17;12.15;;;12.20;99.90;;;;;;5052485;28;20033;-62
2022/05/01 06:59:10;;;;;;;22.55;12.23;;;12.30;99.90;;;;;;5052625;28;20028;-59
2022/05/01 07:01:36;;;;;;;21.60;11.95;;;12.30;99.90;;;;;;5052635;28;20025;-63
2022/05/01 07:04:01;;;;;;;20.48;11.60;;;12.40;99.90;;;;;;5052354;28;20035;-63
2022/05/01 07:06:27;;;;;;;19.42;10.93;;;12.50;99.90;;;;;;5052293;28;20036;-60
2022/05/01 07:08:53;;;;;;;19.92;11.15;;;12.50;99.90;;;;;;5052337;28;20047;-62
2022/05/01 07:11:18;;;;;;;21.08;11.85;;;12.50;99.90;;;;;;5052516;28;20105;-61
2022/05/01 07:13:44;;;;;;;23.90;12.45;;;12.60;99.90;;;;;;5051606;28;20025;-59
2022/05/01 07:16:10;;;;;;;21.77;11.70;;;12.60;99.90;;;;;;5052636;28;20063;-60
2022/05/01 07:18:36;;;;;;;20.35;11.55;;;12.80;99.90;;;;;;5052703;28;20024;-60
2022/05/01 07:21:02;;;;;;;22.73;13.93;;;13.00;99.90;;;;;;5051276;28;20443;-62
2022/05/01 07:23:28;;;;;;;21.38;13.35;;;13.20;99.90;;;;;;5052607;28;20021;-63
2022/05/01 07:25:54;;;;;;;20.77;13.18;;;13.40;99.90;;;;;;5052743;28;20021;-63
2022/05/01 07:28:19;;;;;;;20.48;11.93;;;13.50;99.90;;;;;;5051341;28;20046;-60
2022/05/01 07:30:45;;;;;;;20.55;11.05;;;13.70;99.90;;;;;;5053166;28;20024;-59
2022/05/01 07:33:11;;;;;;;20.95;11.90;;;13.80;99.90;;;;;;5053353;28;20029;-60
2022/05/01 07:35:37;;;;;;;20.85;11.88;;;13.70;99.90;;;;;;5052638;28;20047;-63
2022/05/01 07:38:03;;;;;;;20.83;11.90;;;13.90;99.90;;;;;;5053012;28;20028;-61
2022/05/01 07:40:29;;;;;;;20.23;11.40;;;13.90;99.90;;;;;;5051826;28;20388;-62
2022/05/01 07:42:55;;;;;;;20.38;12.20;;;14.10;99.90;;;;;;5052955;28;20525;-61
2022/05/01 07:45:20;;;;;;;20.40;11.70;;;14.00;99.90;;;;;;5052628;28;20104;-62
2022/05/01 07:47:46;;;;;;;20.83;12.75;;;13.90;99.90;;;;;;5051652;28;20076;-64
2022/05/01 07:50:13;;;;;;;23.15;12.05;;;;;;;;;;5052054;28;20120;-61
2022/05/01 07:52:39;;;;;;;21.10;11.63;;;;;;;;;;5052529;28;20036;-63
2022/05/01 07:55:06;;;;;;;22.38;13.27;;;14.10;99.90;;;;;;5050990;28;20045;-63
2022/05/01 07:57:32;;;;;;;20.17;11.50;;;;;;;;;;5051096;28;20033;-61
2022/05/01 07:59:58;;;;;;;19.02;11.55;;;;;;;;;;5052481;28;20116;-62
2022/05/01 08:02:24;;;;;;;19.63;11.30;;;;;;;;;;5052134;28;20033;-62
2022/05/01 08:04:50;;;;;;;21.38;12.10;;;14.70;99.90;;;;;;5051926;28;20033;-61
2022/05/01 08:07:16;;;;;;;20.95;12.70;;;15.10;99.90;;;;;;5051822;28;20059;-61
2022/05/01 08:09:41;;;;;;;21.52;12.07;;;15.20;99.90;;;;;;5051830;28;20040;-60
2022/05/01 08:12:07;;;;;;;19.85;11.48;;;15.40;99.90;;;;;;5051844;28;20131;-63
2022/05/01 08:14:33;;;;;;;18.98;11.05;;;15.50;99.90;;;;;;5051503;28;20025;-58
2022/05/01 08:16:58;;;;;;;20.92;11.40;;;15.70;99.90;;;;;;5051652;28;20023;-60
2022/05/01 08:22:08;;;;;;;19.23;10.88;;;15.50;99.30;;;;;;5051729;28;20032;-61
2022/05/01 08:24:35;;;;;;;23.10;11.93;;;;;;;;;;5053584;28;20028;-61
2022/05/01 08:27:05;;;;;;;18.13;11.18;;;;;;;;;;5055472;28;20028;-58
2022/05/01 08:29:37;;;;;;;18.88;10.50;;;;;;;;;;5055413;28;20021;-56
2022/05/01 08:32:03;;;;;;;17.25;10.65;;;;;;;;;;5055326;28;20027;-63
2022/05/01 08:34:29;;;;;;;21.42;11.75;;;;;;;;;;5055288;28;20021;-58
2022/05/01 08:36:55;;;;;;;19.83;11.32;;;15.70;98.90;;;;;;5055418;28;20120;-61
2022/05/01 08:39:21;;;;;;;20.67;10.88;;;16.70;96.90;;;;;;5053828;28;20033;-60
2022/05/01 08:41:47;;;;;;;19.58;11.55;;;16.70;96.80;;;;;;5054050;28;20029;-60
2022/05/01 08:44:14;;;;;;;20.33;11.07;;;16.90;96.20;;;;;;5053766;28;20029;-59
2022/05/01 08:46:45;;;;;;;22.95;11.73;;;17.00;95.20;;;;;;5055016;28;20037;-60
2022/05/01 08:49:12;;;;;;;19.13;11.32;;;16.90;94.50;;;;;;5054744;28;20021;-60
2022/05/01 08:51:42;;;;;;;18.80;10.98;;;17.20;94.80;;;;;;5053624;28;20052;-61
2022/05/01 08:54:12;;;;;;;18.80;10.73;;;16.90;94.10;;;;;;5054616;28;20025;-58
2022/05/01 08:56:41;;;;;;;18.42;10.57;;;16.30;93.60;;;;;;5055067;28;20568;-60
2022/05/01 08:59:12;;;;;;;18.02;10.80;;;16.50;93.70;;;;;;5054865;28;20147;-55
2022/05/01 09:01:42;;;;;;;19.88;11.10;;;16.70;93.80;;;;;;5053342;28;20031;-57
2022/05/01 09:04:09;;;;;;;17.13;10.45;;;16.80;92.90;;;;;;5053318;28;20378;-57
2022/05/01 09:06:36;;;;;;;18.93;9.77;;;17.20;91.70;;;;;;4704755;28;10000358;-64
2022/05/01 09:09:09;;;;;;;19.80;10.85;;;17.20;91.80;;;;;;5066092;28;20028;-64
2022/05/01 09:14:23;;;;;;;20.63;9.73;;;17.20;90.40;;;;;;5071305;28;20070;-63
2022/05/01 09:17:15;;;;;;;16.48;9.68;;;17.00;86.10;;;;;;5051785;28;20055;-64
2022/05/01 09:19:42;;;;;;;17.17;9.95;;;17.10;87.30;;;;;;5051638;28;20573;-64
2022/05/01 09:22:08;;;;;;;19.45;10.35;;;17.40;89.40;;;;;;5051699;28;20029;-64
2022/05/01 09:24:33;;;;;;;18.42;9.55;;;17.40;88.60;;;;;;5064298;28;20411;-64
2022/05/01 09:27:00;;;;;;;17.30;10.38;;;17.20;87.80;;;;;;5071461;28;20025;-64
2022/05/01 09:29:37;;;;;;;17.60;9.75;;;17.30;88.40;;;;;;5070016;28;20054;-64
2022/05/01 09:32:03;;;;;;;19.83;10.75;;;17.30;89.50;;;;;;5071650;28;20463;-64
2022/05/01 09:34:35;;;;;;;17.05;9.88;;;17.60;88.30;;;;;;5070008;28;20016;-63
2022/05/01 09:37:03;;;;;;;19.50;9.60;;;17.40;86.00;;;;;;5070368;28;20024;-63
2022/05/01 09:39:31;;;;;;;18.52;9.68;;;16.90;85.10;;;;;;5071025;28;20028;-63
2022/05/01 09:42:14;;;;;;;18.50;10.23;;;17.00;87.20;;;;;;5053936;28;20044;-63
2022/05/01 09:44:40;;;;;;;19.42;10.40;;;17.20;87.40;;;;;;5050894;28;20087;-63
2022/05/01 09:47:07;;;;;;;18.38;10.38;;;17.20;86.70;;;;;;5052501;28;20029;-64
2022/05/01 09:49:47;;;;;;;21.75;9.90;;;17.20;85.10;;;;;;5053538;28;20370;-64
2022/05/01 09:52:13;;;;;;;17.60;9.43;;;17.00;85.40;;;;;;5053702;28;20017;-64
2022/05/01 09:54:39;;;;;;;17.02;9.70;;;17.20;83.90;;;;;;5053669;28;20029;-64
2022/05/01 09:57:05;;;;;;;17.33;9.40;;;17.00;86.70;;;;;;5053894;28;20536;-64
2022/05/01 09:59:45;;;;;;;21.38;10.23;;;17.30;83.50;;;;;;5052382;28;20030;-64
2022/05/01 10:02:10;;;;;;;17.15;9.55;;;16.80;82.00;;;;;;5052254;28;20099;-64
2022/05/01 10:04:37;;;;;;;20.65;9.73;;;16.90;83.20;;;;;;5051643;28;20529;-64
2022/05/01 10:07:04;;;;;;;17.33;9.88;;;16.80;83.60;;;;;;5052948;28;20055;-64
2022/05/01 10:09:34;;;;;;;18.08;10.25;;;17.10;85.00;;;;;;5053472;28;20033;-63
2022/05/01 10:12:08;;;;;;;19.40;9.85;;;17.20;84.60;;;;;;5053537;28;20028;-64
2022/05/01 10:14:34;;;;;;;19.30;9.98;;;17.50;85.40;;;;;;5051987;28;20021;-64
2022/05/01 10:17:02;;;;;;;21.80;10.20;;;17.40;82.70;;;;;;5052273;28;20145;-64
2022/05/01 10:19:28;;;;;;;17.83;9.63;;;17.40;85.40;;;;;;5053236;28;20036;-63
2022/05/01 10:22:00;;;;;;;20.23;11.02;;;17.10;84.70;;;;;;5053350;28;20469;-64
2022/05/01 10:24:26;;;;;;;20.63;10.07;;;16.70;84.80;;;;;;5053319;28;20017;-64
2022/05/01 10:27:15;;;;;;;20.85;13.18;;;16.70;84.50;;;;;;5060247;28;20028;-65
2022/05/01 10:33:21;;;;;;;18.20;9.65;;;16.40;85.40;;;;;;5057776;28;20064;-63
2022/05/01 10:36:10;;;;;;;18.08;9.35;;;16.40;85.90;;;;;;5059006;28;20724;-64
2022/05/01 10:38:36;;;;;;;17.58;9.85;;;;;;;;;;5064450;28;20377;-63
2022/05/01 10:41:05;;;;;;;17.42;10.50;;;16.00;85.60;;;;;;5066263;28;20020;-65
2022/05/01 10:43:31;;;;;;;;;;;15.70;85.70;;;;;;5072439;28;20025;-65
2022/05/01 10:46:01;;;;;;;18.00;9.80;;;15.60;85.70;;;;;;5073134;28;19904;-64
2022/05/01 10:48:38;;;;;;;16.95;9.00;;;15.80;86.60;;;;;;5071105;28;20031;-64
2022/05/01 10:51:31;;;;;;;21.23;10.10;;;15.90;86.40;;;;;;5071425;28;20440;-64
2022/05/01 10:54:14;;;;;;;18.85;10.35;;;15.80;85.00;;;;;;5072247;28;20020;-65
2022/05/01 10:56:42;;;;;;;18.23;9.40;;;15.90;84.90;;;;;;5071695;28;20119;-66
2022/05/01 10:59:29;;;;;;;16.75;9.30;;;15.70;85.20;;;;;;5070553;28;20032;-64
2022/05/01 11:02:06;;;;;;;20.05;9.75;;;16.00;86.80;;;;;;5072554;28;20082;-65
2022/05/01 11:04:41;;;;;;;19.02;9.63;;;16.10;85.20;;;;;;5071205;28;20040;-65
2022/05/01 11:07:12;;;;;;;18.08;9.63;;;16.30;84.70;;;;;;5070260;28;20496;-66
2022/05/01 11:09:41;;;;;;;29.90;21.30;;;16.30;84.00;;;;;;5050911;28;20028;-63
2022/05/01 11:12:08;;;;;;;21.85;13.65;;;16.00;83.70;;;;;;5051651;28;20028;-64
2022/05/01 11:14:41;;;;;;;18.52;10.07;;;16.00;83.50;;;;;;5047651;28;20013;-62
2022/05/01 11:17:08;;;;;;;34.67;23.05;;;15.90;82.90;;;;;;5051962;28;20129;-61
2022/05/01 11:19:51;;;;;;;46.40;33.83;;;16.00;83.70;;;;;;5034505;28;20029;-61
2022/05/01 11:22:25;;;;;;;28.88;18.52;;;16.10;84.10;;;;;;5034096;28;20017;-62
2022/05/01 11:24:50;;;;;;;17.35;8.75;;;16.00;83.10;;;;;;5052056;28;20025;-63
2022/05/01 11:27:18;;;;;;;18.65;9.85;;;15.90;82.90;;;;;;5052196;28;20043;-61
2022/05/01 11:30:05;;;;;;;18.83;9.80;;;15.40;82.60;;;;;;5052295;28;20028;-63
2022/05/01 11:32:43;;;;;;;20.00;12.55;;;15.70;83.90;;;;;;5045967;28;20397;-61
2022/05/01 11:35:11;;;;;;;18.93;9.93;;;15.80;83.40;;;;;;5051603;28;20025;-59
2022/05/01 11:38:08;;;;;;;19.87;9.57;;;16.00;83.40;;;;;;5050587;28;20297;-63
2022/05/01 11:40:34;;;;;;;16.83;9.20;;;16.10;83.90;;;;;;5051377;28;20040;-63
2022/05/01 11:43:19;;;;;;;17.23;8.95;;;16.00;82.90;;;;;;4001555;28;10000283;-63
2022/05/01 11:45:46;;;;;;;18.63;8.70;;;16.30;83.00;;;;;;5048876;28;20032;-60
2022/05/01 11:48:19;;;;;;;19.52;11.70;;;16.30;81.90;;;;;;5050952;28;20075;-64
2022/05/01 11:50:48;;;;;;;21.98;9.43;;;16.10;82.00;;;;;;5051553;28;20023;-62
2022/05/01 11:53:23;;;;;;;19.55;9.98;;;16.20;81.00;;;;;;5050664;28;20025;-61
2022/05/01 12:04:37;;;;;;;16.20;9.30;;;17.10;80.60;;;;;;5055808;28;20155;-60
2022/05/01 12:07:11;;;;;;;17.48;9.85;;;17.50;80.00;;;;;;5064116;28;20395;-62
2022/05/01 12:09:39;;;;;;;16.63;9.68;;;18.00;78.50;;;;;;5053835;28;20017;-62
2022/05/01 12:12:13;;;;;;;18.52;9.73;;;18.90;78.20;;;;;;5057125;28;20081;-59
2022/05/01 12:14:39;;;;;;;19.70;9.70;;;;;;;;;;5054697;28;20029;-59
2022/05/01 12:17:10;;;;;;;22.17;10.88;;;20.40;77.10;;;;;;5056269;28;20110;-62
2022/05/01 12:19:42;;;;;;;18.98;9.82;;;22.10;71.30;;;;;;5056099;28;20032;-61
2022/05/01 12:22:09;;;;;;;16.20;9.90;;;23.00;70.90;;;;;;5055604;28;20020;-60
2022/05/01 12:24:36;;;;;;;18.63;9.70;;;23.70;65.20;;;;;;5055148;28;20449;-60
2022/05/01 12:27:03;;;;;;;16.35;10.13;;;25.00;65.20;;;;;;5055057;28;20079;-60
2022/05/01 12:29:29;;;;;;;18.20;9.80;;;25.70;61.80;;;;;;5054373;28;20413;-62
2022/05/01 12:32:16;;;;;;;17.55;10.13;;;26.00;58.70;;;;;;5055218;28;20024;-60
2022/05/01 12:34:44;;;;;;;17.35;10.48;;;25.20;58.60;;;;;;5055230;28;20501;-63
2022/05/01 12:37:15;;;;;;;19.92;11.68;;;25.20;59.10;;;;;;5053568;28;20120;-60
2022/05/01 12:39:43;;;;;;;20.23;10.65;;;25.20;56.40;;;;;;5055015;28;20036;-60
2022/05/01 12:45:21;;;;;;;17.52;10.35;;;25.40;57.60;;;;;;5059108;28;19915;-61
2022/05/01 12:47:51;;;;;;;15.95;10.45;;;25.00;56.10;;;;;;5054851;28;20059;-60
2022/05/01 12:50:20;;;;;;;20.40;11.27;;;25.60;58.40;;;;;;5054735;28;20021;-57
2022/05/01 12:52:48;;;;;;;18.27;11.13;;;25.00;56.30;;;;;;5055108;28;20021;-61
2022/05/01 12:55:19;;;;;;;18.80;10.93;;;24.10;56.30;;;;;;5054733;28;20032;-61
2022/05/01 12:57:52;;;;;;;17.85;10.55;;;22.90;58.80;;;;;;5053702;28;20036;-62
2022/05/01 13:00:36;;;;;;;17.63;10.82;;;22.70;60.00;;;;;;5054831;28;20107;-60
2022/05/01 13:03:20;;;;;;;19.42;11.85;;;22.40;59.40;;;;;;5054740;28;20032;-61
2022/05/01 13:06:03;;;;;;;17.38;10.95;;;22.10;59.90;;;;;;5054471;28;20159;-62
2022/05/01 13:08:34;;;;;;;18.77;10.93;;;21.80;60.00;;;;;;5054747;28;20052;-61
2022/05/01 13:11:14;;;;;;;19.48;11.13;;;21.70;60.10;;;;;;5053445;28;20385;-61
2022/05/01 13:14:07;;;;;;;18.33;10.85;;;21.60;59.90;;;;;;5054766;28;20111;-62
2022/05/01 13:16:33;;;;;;;19.70;11.35;;;21.20;60.80;;;;;;5054870;28;20029;-61
2022/05/01 13:19:00;;;;;;;18.73;11.80;;;21.30;61.50;;;;;;5054408;28;20036;-60
2022/05/01 13:21:28;;;;;;;19.30;10.75;;;21.00;61.40;;;;;;5054334;28;20416;-60
2022/05/01 13:24:05;;;;;;;16.90;10.50;;;21.00;61.60;;;;;;5054343;28;20063;-58